createdAt,value
2024-01-07T00:00:05.370Z,8.60
2024-01-07T00:02:33.445Z,8.52
2024-01-07T00:05:03.070Z,8.42
2024-01-07T00:07:32.707Z,8.51
2024-01-07T00:10:01.041Z,8.46
2024-01-07T00:12:29.198Z,8.46
2024-01-07T00:14:57.232Z,8.48
2024-01-07T00:17:25.860Z,8.34
2024-01-07T00:19:54.006Z,8.32
2024-01-07T00:22:22.063Z,8.27
2024-01-07T00:24:51.571Z,8.07
2024-01-07T00:27:19.592Z,8.11
2024-01-07T00:29:47.687Z,8.09
2024-01-07T00:32:15.768Z,8.06
2024-01-07T00:34:44.023Z,8.08
2024-01-07T00:37:12.285Z,8.07
2024-01-07T00:39:40.396Z,8.09
2024-01-07T00:42:09.908Z,8.17
2024-01-07T00:44:39.339Z,8.10
2024-01-07T00:47:07.534Z,8.20
2024-01-07T00:49:35.655Z,8.23
2024-01-07T00:52:04.141Z,8.20
2024-01-07T00:54:32.400Z,8.08
2024-01-07T00:57:00.495Z,8.11
2024-01-07T00:59:32.061Z,8.02
2024-01-07T01:02:00.197Z,8.03
2024-01-07T01:04:28.429Z,8.03
2024-01-07T01:06:57.050Z,7.99
2024-01-07T01:09:25.448Z,7.99
2024-01-07T01:11:53.738Z,8.02
2024-01-07T01:14:21.878Z,8.02
2024-01-07T01:16:51.406Z,7.94
2024-01-07T01:19:20.145Z,7.93
2024-01-07T01:21:48.334Z,7.82
2024-01-07T01:24:16.416Z,7.74
2024-01-07T01:26:44.567Z,7.69
2024-01-07T01:29:12.982Z,7.66
2024-01-07T01:31:41.288Z,7.64
2024-01-07T01:34:11.195Z,7.60
2024-01-07T01:36:39.362Z,7.62
2024-01-07T01:39:07.423Z,7.57
2024-01-07T01:41:35.784Z,7.52
2024-01-07T01:44:03.835Z,7.51
2024-01-07T01:46:32.208Z,7.47
2024-01-07T01:49:00.382Z,7.38
2024-01-07T01:51:30.089Z,7.48
2024-01-07T01:53:58.909Z,7.50
2024-01-07T01:56:27.035Z,7.50
2024-01-07T01:58:55.133Z,7.48
2024-01-07T02:01:23.273Z,7.47
2024-01-07T02:03:52.916Z,7.40
2024-01-07T02:06:21.119Z,7.42
2024-01-07T02:08:50.829Z,7.46
2024-01-07T02:11:20.021Z,7.25
2024-01-07T02:13:48.136Z,7.43
2024-01-07T02:16:16.213Z,7.38
2024-01-07T02:18:45.474Z,7.24
2024-01-07T02:21:13.549Z,7.29
2024-01-07T02:23:41.684Z,7.27
2024-01-07T02:26:11.170Z,7.30
2024-01-07T02:28:39.209Z,7.25
2024-01-07T02:31:09.478Z,7.34
2024-01-07T02:33:37.622Z,7.33
2024-01-07T02:36:06.436Z,7.30
2024-01-07T02:38:34.527Z,7.19
2024-01-07T02:41:02.618Z,7.10
2024-01-07T02:43:32.213Z,6.89
2024-01-07T02:46:00.337Z,6.94
2024-01-07T02:48:28.432Z,6.88
2024-01-07T02:50:56.548Z,6.88
2024-01-07T02:53:24.589Z,7.01
2024-01-07T02:55:52.615Z,7.01
2024-01-07T02:58:20.710Z,7.00
2024-01-07T03:00:50.173Z,7.09
2024-01-07T03:03:18.511Z,7.07
2024-01-07T03:05:46.662Z,6.99
2024-01-07T03:08:14.653Z,6.92
2024-01-07T03:10:42.910Z,6.84
2024-01-07T03:13:10.982Z,6.79
2024-01-07T03:15:39.270Z,6.79
2024-01-07T03:18:09.246Z,6.83
2024-01-07T03:20:37.425Z,6.86
2024-01-07T03:23:05.773Z,6.90
2024-01-07T03:25:34.475Z,6.94
2024-01-07T03:28:02.601Z,6.98
2024-01-07T03:30:30.728Z,7.01
2024-01-07T03:32:58.905Z,6.95
2024-01-07T03:35:28.468Z,6.94
2024-01-07T03:37:56.516Z,6.84
2024-01-07T03:40:24.829Z,6.84
2024-01-07T03:42:53.018Z,6.74
2024-01-07T03:45:21.216Z,6.68
2024-01-07T03:47:49.336Z,6.87
2024-01-07T03:50:17.398Z,6.90
2024-01-07T03:52:46.993Z,6.89
2024-01-07T03:55:15.227Z,6.82
2024-01-07T03:57:43.401Z,6.73
2024-01-07T04:00:12.594Z,6.67
2024-01-07T04:02:40.710Z,6.73
2024-01-07T04:05:10.344Z,6.76
2024-01-07T04:07:38.429Z,6.74
2024-01-07T04:10:09.323Z,6.80
2024-01-07T04:12:37.532Z,6.79
2024-01-07T04:15:06.352Z,6.81
2024-01-07T04:17:34.407Z,6.70
2024-01-07T04:20:02.529Z,6.71
2024-01-07T04:22:30.527Z,6.45
2024-01-07T04:24:58.537Z,6.62
2024-01-07T04:27:29.033Z,6.62
2024-01-07T04:29:57.084Z,6.66
2024-01-07T04:32:25.088Z,6.65
2024-01-07T04:34:53.296Z,6.68
2024-01-07T04:37:21.377Z,6.65
2024-01-07T04:39:49.437Z,6.54
2024-01-07T04:42:17.549Z,6.49
2024-01-07T04:44:47.036Z,6.25
2024-01-07T04:47:30.949Z,6.36
2024-01-07T04:49:59.394Z,6.32
2024-01-07T04:52:27.732Z,6.21
2024-01-07T04:54:55.822Z,6.23
2024-01-07T04:57:24.108Z,6.23
2024-01-07T04:59:53.763Z,6.29
2024-01-07T05:02:21.927Z,6.27
2024-01-07T05:04:50.148Z,6.28
2024-01-07T05:07:18.505Z,6.29
2024-01-07T05:09:46.668Z,6.30
2024-01-07T05:12:14.730Z,6.35
2024-01-07T05:14:44.011Z,6.36
2024-01-07T05:17:13.536Z,6.35
2024-01-07T05:19:43.018Z,6.34
2024-01-07T05:22:11.466Z,6.30
2024-01-07T05:24:40.089Z,6.33
2024-01-07T05:27:08.236Z,6.14
2024-01-07T05:29:36.351Z,6.12
2024-01-07T05:32:05.250Z,6.23
2024-01-07T05:34:34.912Z,6.08
2024-01-07T05:37:03.248Z,6.11
2024-01-07T05:39:31.411Z,6.14
2024-01-07T05:41:59.533Z,6.16
2024-01-07T05:44:30.078Z,6.00
2024-01-07T05:46:58.546Z,5.96
2024-01-07T05:49:26.798Z,6.14
2024-01-07T05:51:56.416Z,6.17
2024-01-07T05:54:24.610Z,6.12
2024-01-07T05:56:53.498Z,6.13
2024-01-07T05:59:21.586Z,6.11
2024-01-07T06:01:49.641Z,6.11
2024-01-07T06:04:17.794Z,6.07
2024-01-07T06:06:46.100Z,6.09
2024-01-07T06:09:15.612Z,6.06
2024-01-07T06:11:43.987Z,6.16
2024-01-07T06:14:12.025Z,6.05
2024-01-07T06:16:40.178Z,6.07
2024-01-07T06:19:08.452Z,6.16
2024-01-07T06:21:36.552Z,6.18
2024-01-07T06:24:05.525Z,6.17
2024-01-07T06:26:35.012Z,6.19
2024-01-07T06:29:03.138Z,6.19
2024-01-07T06:31:31.304Z,6.15
2024-01-07T06:33:59.658Z,6.16
2024-01-07T06:36:27.915Z,6.11
2024-01-07T06:38:56.003Z,6.12
2024-01-07T06:41:24.321Z,6.08
2024-01-07T06:43:58.024Z,6.13
2024-01-07T06:46:26.086Z,6.04
2024-01-07T06:48:54.222Z,6.00
2024-01-07T06:51:22.386Z,5.95
2024-01-07T06:53:51.624Z,5.90
2024-01-07T06:56:19.738Z,5.72
2024-01-07T06:58:47.868Z,5.91
2024-01-07T07:01:20.178Z,5.86
2024-01-07T07:03:48.349Z,5.99
2024-01-07T07:06:16.604Z,6.02
2024-01-07T07:08:44.653Z,6.02
2024-01-07T07:11:12.776Z,5.97
2024-01-07T07:13:40.925Z,6.03
2024-01-07T07:16:09.597Z,6.02
2024-01-07T07:18:39.237Z,6.00
2024-01-07T07:21:07.338Z,6.00
2024-01-07T07:23:35.454Z,6.00
2024-01-07T07:26:03.583Z,6.04
2024-01-07T07:28:31.576Z,5.96
2024-01-07T07:30:59.734Z,6.01
2024-01-07T07:33:28.003Z,6.05
2024-01-07T07:35:57.685Z,5.94
2024-01-07T07:38:25.847Z,5.97
2024-01-07T07:40:54.807Z,5.99
2024-01-07T07:43:23.013Z,6.00
2024-01-07T07:45:52.167Z,5.94
2024-01-07T07:48:20.532Z,5.88
2024-01-07T07:50:48.689Z,5.76
2024-01-07T07:53:18.207Z,5.78
2024-01-07T07:55:46.396Z,5.75
2024-01-07T07:58:14.488Z,5.73
2024-01-07T08:00:42.772Z,5.75
2024-01-07T08:03:10.889Z,5.74
2024-01-07T08:05:40.105Z,5.63
2024-01-07T08:08:08.583Z,5.78
2024-01-07T08:10:38.026Z,5.76
2024-01-07T08:13:07.682Z,5.83
2024-01-07T08:15:35.830Z,5.88
2024-01-07T08:18:04.605Z,5.73
2024-01-07T08:20:33.063Z,5.87
2024-01-07T08:23:02.145Z,5.85
2024-01-07T08:25:30.834Z,5.84
2024-01-07T08:28:00.778Z,5.85
2024-01-07T08:30:29.142Z,5.82
2024-01-07T08:32:57.388Z,5.76
2024-01-07T08:35:27.684Z,5.55
2024-01-07T08:37:56.081Z,5.73
2024-01-07T08:40:24.308Z,5.73
2024-01-07T08:42:52.512Z,5.82
2024-01-07T08:45:22.089Z,5.86
2024-01-07T08:47:50.399Z,5.86
2024-01-07T08:50:18.482Z,5.95
2024-01-07T08:52:47.613Z,6.00
2024-01-07T08:55:16.795Z,6.08
2024-01-07T08:57:46.932Z,6.12
2024-01-07T09:00:16.269Z,6.14
2024-01-07T09:02:45.897Z,6.16
2024-01-07T09:05:14.823Z,6.15
2024-01-07T09:07:45.714Z,6.22
2024-01-07T09:10:14.778Z,6.18
2024-01-07T09:12:43.201Z,6.30
2024-01-07T09:15:11.672Z,6.24
2024-01-07T09:17:40.213Z,6.18
2024-01-07T09:20:10.881Z,6.32
2024-01-07T09:22:38.920Z,6.39
2024-01-07T09:25:08.077Z,6.42
2024-01-07T09:27:36.265Z,6.56
2024-01-07T09:30:04.922Z,6.68
2024-01-07T09:32:35.391Z,6.82
2024-01-07T09:35:07.283Z,6.87
2024-01-07T09:37:37.884Z,7.07
2024-01-07T09:40:07.595Z,7.22
2024-01-07T09:42:36.173Z,7.40
2024-01-07T09:45:06.012Z,7.55
2024-01-07T09:47:34.415Z,7.62
2024-01-07T09:50:06.434Z,7.80
2024-01-07T09:52:34.838Z,7.97
2024-01-07T09:55:05.541Z,8.14
2024-01-07T09:57:33.736Z,8.27
2024-01-07T10:00:02.267Z,8.46
2024-01-07T10:02:30.391Z,8.55
2024-01-07T10:04:58.429Z,8.75
2024-01-07T10:07:27.030Z,8.86
2024-01-07T10:09:57.134Z,9.06
2024-01-07T10:12:27.662Z,9.23
2024-01-07T10:14:55.789Z,9.32
2024-01-07T10:17:28.710Z,9.50
2024-01-07T10:19:56.793Z,9.52
2024-01-07T10:22:25.040Z,9.46
2024-01-07T10:24:53.906Z,9.44
2024-01-07T10:27:22.192Z,9.54
2024-01-07T10:29:51.954Z,9.59
2024-01-07T10:32:21.606Z,9.71
2024-01-07T10:34:49.833Z,9.75
2024-01-07T10:37:18.730Z,9.74
2024-01-07T10:39:46.815Z,9.81
2024-01-07T10:42:14.861Z,9.93
2024-01-07T10:44:43.082Z,10.24
2024-01-07T10:47:12.661Z,10.67
2024-01-07T10:49:40.945Z,10.44
2024-01-07T10:52:10.085Z,10.10
2024-01-07T10:54:38.770Z,10.20
2024-01-07T10:57:18.738Z,10.79
2024-01-07T10:59:47.744Z,11.26
2024-01-07T11:02:17.211Z,11.70
2024-01-07T11:04:48.527Z,12.08
2024-01-07T11:07:21.208Z,12.62
2024-01-07T11:09:55.781Z,12.85
2024-01-07T11:12:23.877Z,13.25
2024-01-07T11:14:54.231Z,13.48
2024-01-07T11:17:48.257Z,13.80
2024-01-07T11:20:21.528Z,14.02
2024-01-07T11:22:49.617Z,14.23
2024-01-07T11:25:33.951Z,14.37
2024-01-07T11:28:03.642Z,14.44
2024-01-07T11:30:31.910Z,14.50
2024-01-07T11:33:02.066Z,14.59
2024-01-07T11:35:57.758Z,14.62
2024-01-07T11:38:26.008Z,14.60
2024-01-07T11:40:54.655Z,14.59
2024-01-07T11:43:22.772Z,14.55
2024-01-07T11:45:52.196Z,14.31
2024-01-07T11:48:21.868Z,14.64
2024-01-07T11:50:51.998Z,14.28
2024-01-07T11:53:21.542Z,13.81
2024-01-07T11:55:49.925Z,13.32
2024-01-07T11:58:18.141Z,13.52
2024-01-07T12:00:46.297Z,13.88
2024-01-07T12:03:14.823Z,14.27
2024-01-07T12:05:44.688Z,14.65
2024-01-07T12:08:13.012Z,14.94
2024-01-07T12:10:41.061Z,15.19
2024-01-07T12:13:09.979Z,15.06
2024-01-07T12:15:38.180Z,15.05
2024-01-07T12:18:06.945Z,15.18
2024-01-07T12:20:35.022Z,15.35
2024-01-07T12:23:09.687Z,15.24
2024-01-07T12:25:38.197Z,15.18
2024-01-07T12:28:08.931Z,15.05
2024-01-07T12:30:38.006Z,15.23
2024-01-07T12:33:06.981Z,14.77
2024-01-07T12:35:35.172Z,14.27
2024-01-07T12:38:04.024Z,13.72
2024-01-07T12:40:33.471Z,13.67
2024-01-07T12:43:01.579Z,13.30
2024-01-07T12:45:29.665Z,13.37
2024-01-07T12:48:00.179Z,13.35
2024-01-07T12:50:29.372Z,13.42
2024-01-07T12:52:57.440Z,13.15
2024-01-07T12:55:26.790Z,12.64
2024-01-07T12:57:57.844Z,12.70
2024-01-07T13:00:26.198Z,12.84
2024-01-07T13:02:56.268Z,13.32
2024-01-07T13:05:26.593Z,13.31
2024-01-07T13:07:54.779Z,13.27
2024-01-07T13:10:23.037Z,12.84
2024-01-07T13:12:55.541Z,12.50
2024-01-07T13:15:27.752Z,12.26
2024-01-07T13:17:56.291Z,12.09
2024-01-07T13:20:24.952Z,11.76
2024-01-07T13:22:53.124Z,11.78
2024-01-07T13:25:21.550Z,11.59
2024-01-07T13:27:49.769Z,11.41
2024-01-07T13:30:18.347Z,11.39
2024-01-07T13:32:47.920Z,11.46
2024-01-07T13:35:16.725Z,11.46
2024-01-07T13:37:45.174Z,11.56
2024-01-07T13:40:15.774Z,11.61
2024-01-07T13:42:43.925Z,11.71
2024-01-07T13:45:14.797Z,11.77
2024-01-07T13:47:43.275Z,11.88
2024-01-07T13:50:13.026Z,11.90
2024-01-07T13:52:42.171Z,12.00
2024-01-07T13:55:11.597Z,12.03
2024-01-07T13:57:40.183Z,12.02
2024-01-07T14:00:10.783Z,11.92
2024-01-07T14:02:40.182Z,12.01
2024-01-07T14:05:10.278Z,12.07
2024-01-07T14:07:40.331Z,12.11
2024-01-07T14:10:10.108Z,12.07
2024-01-07T14:12:38.460Z,12.22
2024-01-07T14:15:07.804Z,12.29
2024-01-07T14:17:36.198Z,12.34
2024-01-07T14:20:04.939Z,12.34
2024-01-07T14:22:32.994Z,12.32
2024-01-07T14:25:02.579Z,12.21
2024-01-07T14:27:30.710Z,12.17
2024-01-07T14:29:59.030Z,12.09
2024-01-07T14:32:27.199Z,11.94
2024-01-07T14:34:55.388Z,11.97
2024-01-07T14:37:24.016Z,11.94
2024-01-07T14:39:52.370Z,11.98
2024-01-07T14:42:21.835Z,11.85
2024-01-07T14:44:51.549Z,11.82
2024-01-07T14:47:20.198Z,11.68
2024-01-07T14:49:48.336Z,11.61
2024-01-07T14:52:16.608Z,11.51
2024-01-07T14:54:45.049Z,11.44
2024-01-07T14:57:13.539Z,11.28
2024-01-07T14:59:43.097Z,11.41
2024-01-07T15:02:13.506Z,11.41
2024-01-07T15:04:43.476Z,11.39
2024-01-07T15:07:12.015Z,11.33
2024-01-07T15:09:42.032Z,11.27
2024-01-07T15:12:10.464Z,11.16
2024-01-07T15:14:38.914Z,11.05
2024-01-07T15:17:08.365Z,11.02
2024-01-07T15:19:36.559Z,10.87
2024-01-07T15:22:05.208Z,10.73
2024-01-07T15:24:33.286Z,10.90
2024-01-07T15:27:01.476Z,10.85
2024-01-07T15:29:30.089Z,10.76
2024-01-07T15:31:58.193Z,10.65
2024-01-07T15:34:28.071Z,10.52
2024-01-07T15:36:56.261Z,10.45
2024-01-07T15:39:24.297Z,10.42
2024-01-07T15:41:52.568Z,10.36
2024-01-07T15:44:20.945Z,10.37
2024-01-07T15:46:49.054Z,10.31
2024-01-07T15:49:17.216Z,10.25
2024-01-07T15:51:46.738Z,10.23
2024-01-07T15:54:15.113Z,10.14
2024-01-07T15:56:43.197Z,10.11
2024-01-07T15:59:11.287Z,10.10
2024-01-07T16:01:39.557Z,10.00
2024-01-07T16:04:07.711Z,10.00
2024-01-07T16:06:35.946Z,9.93
2024-01-07T16:09:05.549Z,9.84
2024-01-07T16:11:33.731Z,9.75
2024-01-07T16:14:01.849Z,9.52
2024-01-07T16:16:29.914Z,9.60
2024-01-07T16:18:58.193Z,9.54
2024-01-07T16:21:26.295Z,9.36
2024-01-07T16:23:54.433Z,9.35
2024-01-07T16:26:23.963Z,9.10
2024-01-07T16:28:53.600Z,9.17
2024-01-07T16:31:21.800Z,9.07
2024-01-07T16:33:50.271Z,8.96
2024-01-07T16:36:18.628Z,8.81
2024-01-07T16:38:46.739Z,8.69
2024-01-07T16:41:16.536Z,8.77
2024-01-07T16:43:47.542Z,8.70
2024-01-07T16:46:16.512Z,8.62
2024-01-07T16:50:16.408Z,8.55
2024-01-07T16:51:32.994Z,8.45
2024-01-07T16:54:01.483Z,8.39
2024-01-07T16:56:29.868Z,8.27
2024-01-07T16:58:59.612Z,8.24
2024-01-07T17:01:28.462Z,8.30
2024-01-07T17:03:58.029Z,8.27
2024-01-07T17:06:26.397Z,8.15
2024-01-07T17:08:54.630Z,8.17
2024-01-07T17:11:23.730Z,8.19
2024-01-07T17:13:57.054Z,8.18
2024-01-07T17:16:32.108Z,8.18
2024-01-07T17:19:03.702Z,8.15
2024-01-07T17:21:32.084Z,8.12
2024-01-07T17:24:00.339Z,8.09
2024-01-07T17:26:29.916Z,7.88
2024-01-07T17:28:58.328Z,7.93
2024-01-07T17:31:27.982Z,7.98
2024-01-07T17:33:56.973Z,7.97
2024-01-07T17:36:25.305Z,7.96
2024-01-07T17:38:53.818Z,7.85
2024-01-07T17:41:22.298Z,7.98
2024-01-07T17:43:50.422Z,7.97
2024-01-07T17:46:19.701Z,7.76
2024-01-07T17:48:49.234Z,7.97
2024-01-07T17:51:19.454Z,7.90
2024-01-07T17:53:47.470Z,7.99
2024-01-07T17:56:20.546Z,8.00
2024-01-07T17:58:50.957Z,8.03
2024-01-07T18:01:19.484Z,8.08
2024-01-07T18:03:49.572Z,8.23
2024-01-07T18:06:17.789Z,8.13
2024-01-07T18:08:52.177Z,8.32
2024-01-07T18:11:21.293Z,8.41
2024-01-07T18:13:50.155Z,8.45
2024-01-07T18:16:18.165Z,8.34
2024-01-07T18:18:46.435Z,8.49
2024-01-07T18:21:17.196Z,8.48
2024-01-07T18:23:45.328Z,8.40
2024-01-07T18:26:13.421Z,8.38
2024-01-07T18:28:43.549Z,8.22
2024-01-07T18:31:12.286Z,8.22
2024-01-07T18:33:40.643Z,8.26
2024-01-07T18:36:10.195Z,8.27
2024-01-07T18:38:39.877Z,8.21
2024-01-07T18:41:08.064Z,8.34
2024-01-07T18:43:36.164Z,8.25
2024-01-07T18:46:04.342Z,8.28
2024-01-07T18:48:32.541Z,8.26
2024-01-07T18:51:00.690Z,8.36
2024-01-07T18:53:28.932Z,8.23
2024-01-07T18:55:58.447Z,8.39
2024-01-07T18:58:26.510Z,8.32
2024-01-07T19:00:54.690Z,8.40
2024-01-07T19:03:22.818Z,8.47
2024-01-07T19:05:51.010Z,8.48
2024-01-07T19:08:19.119Z,8.48
2024-01-07T19:10:48.902Z,8.50
2024-01-07T19:13:18.377Z,8.46
2024-01-07T19:15:46.697Z,8.52
2024-01-07T19:18:15.190Z,8.37
2024-01-07T19:20:44.078Z,8.53
2024-01-07T19:23:12.210Z,8.45
2024-01-07T19:25:40.513Z,8.61
2024-01-07T19:28:08.996Z,8.66
2024-01-07T19:30:39.729Z,8.75
2024-01-07T19:33:07.992Z,8.82
2024-01-07T19:35:36.365Z,8.72
2024-01-07T19:38:04.663Z,8.88
2024-01-07T19:40:32.849Z,8.95
2024-01-07T19:43:00.949Z,8.96
2024-01-07T19:45:29.868Z,8.90
2024-01-07T19:47:59.610Z,8.97
2024-01-07T19:50:28.032Z,8.95
2024-01-07T19:52:56.638Z,8.92
2024-01-07T19:55:24.830Z,8.89
2024-01-07T19:57:52.840Z,8.89
2024-01-07T20:00:21.512Z,8.93
2024-01-07T20:02:50.410Z,8.91
2024-01-07T20:05:20.031Z,8.89
2024-01-07T20:07:48.212Z,8.85
2024-01-07T20:10:17.628Z,8.77
2024-01-07T20:12:46.338Z,8.76
2024-01-07T20:15:14.737Z,8.71
2024-01-07T20:17:43.086Z,8.71
2024-01-07T20:20:12.270Z,8.51
2024-01-07T20:22:41.906Z,8.70
2024-01-07T20:25:10.456Z,8.72
2024-01-07T20:27:38.538Z,8.75
2024-01-07T20:30:14.202Z,8.75
2024-01-07T20:32:42.695Z,8.79
2024-01-07T20:35:11.613Z,8.81
2024-01-07T20:37:42.969Z,8.62
2024-01-07T20:40:11.847Z,8.72
2024-01-07T20:42:43.119Z,8.76
2024-01-07T20:45:13.010Z,8.77
2024-01-07T20:47:41.268Z,8.68
2024-01-07T20:50:10.367Z,8.72
2024-01-07T20:52:38.577Z,8.72
2024-01-07T20:55:09.907Z,8.77
2024-01-07T20:57:38.485Z,8.80
2024-01-07T21:00:08.143Z,8.75
2024-01-07T21:02:36.305Z,8.76
2024-01-07T21:05:04.502Z,8.79
2024-01-07T21:07:35.645Z,8.72
2024-01-07T21:10:07.884Z,8.61
2024-01-07T21:12:36.121Z,8.76
2024-01-07T21:15:04.224Z,8.76
2024-01-07T21:17:32.410Z,8.71
2024-01-07T21:20:00.741Z,8.71
2024-01-07T21:22:28.932Z,8.60
2024-01-07T21:24:57.026Z,8.57
2024-01-07T21:27:26.487Z,8.56
2024-01-07T21:29:54.452Z,8.43
2024-01-07T21:32:22.732Z,8.38
2024-01-07T21:34:51.679Z,8.39
2024-01-07T21:37:19.778Z,8.38
2024-01-07T21:39:49.010Z,8.24
2024-01-07T21:42:18.300Z,8.27
2024-01-07T21:44:47.718Z,8.28
2024-01-07T21:47:16.050Z,8.23
2024-01-07T21:49:48.236Z,8.23
2024-01-07T21:52:16.343Z,8.23
2024-01-07T21:54:44.481Z,8.14
2024-01-07T21:57:12.738Z,8.18
2024-01-07T21:59:41.408Z,8.20
2024-01-07T22:02:12.523Z,8.21
2024-01-07T22:04:40.743Z,8.16
2024-01-07T22:07:09.100Z,8.19
2024-01-07T22:09:37.223Z,8.17
2024-01-07T22:12:05.486Z,8.14
2024-01-07T22:14:33.629Z,8.13
2024-01-07T22:17:01.792Z,8.11
2024-01-07T22:19:31.336Z,8.02
2024-01-07T22:21:59.847Z,8.10
2024-01-07T22:24:27.969Z,8.04
2024-01-07T22:26:56.174Z,8.03
2024-01-07T22:29:24.569Z,7.95
2024-01-07T22:31:53.004Z,7.78
2024-01-07T22:34:21.253Z,7.77
2024-01-07T22:36:50.738Z,7.58
2024-01-07T22:39:18.951Z,7.54
2024-01-07T22:41:47.136Z,7.57
2024-01-07T22:44:16.742Z,7.56
2024-01-07T22:46:45.800Z,7.49
2024-01-07T22:49:14.512Z,7.48
2024-01-07T22:51:44.006Z,7.45
2024-01-07T22:54:13.627Z,7.40
2024-01-07T22:56:42.993Z,7.38
2024-01-07T22:59:12.191Z,7.35
2024-01-07T23:01:41.479Z,7.26
2024-01-07T23:04:09.695Z,7.23
2024-01-07T23:06:39.850Z,7.26
2024-01-07T23:09:09.330Z,7.15
2024-01-07T23:11:38.897Z,7.17
2024-01-07T23:14:07.271Z,7.13
2024-01-07T23:16:35.839Z,7.12
2024-01-07T23:19:05.849Z,7.01
2024-01-07T23:21:34.196Z,7.09
2024-01-07T23:24:02.479Z,7.01
2024-01-07T23:26:30.930Z,6.98
2024-01-07T23:29:00.478Z,7.01
2024-01-07T23:31:28.863Z,7.03
2024-01-07T23:33:57.726Z,7.01
2024-01-07T23:36:26.848Z,6.99
2024-01-07T23:38:56.665Z,6.99
2024-01-07T23:41:24.765Z,6.99
2024-01-07T23:43:53.040Z,6.97
2024-01-07T23:46:23.043Z,6.96
2024-01-07T23:48:51.170Z,6.79
2024-01-07T23:51:21.624Z,6.77
2024-01-07T23:53:50.394Z,6.77
2024-01-07T23:56:19.578Z,6.89
2024-01-07T23:58:47.703Z,6.87
